Terminal Aerodrome Forecast
Issued by NWS

Home | Current Version | Previous Version | Text Only | Print | Product List | Glossary On
Versions: 1 2 3 4 5 6 7 8 9 10 11 12
000
FTUS45 KRIW 141720
TAFBPI
TAF
KBPI 141720Z 1418/1518 26009KT P6SM VCSH BKN080
     FM142000 31011G20KT P6SM VCTS SCT050CB BKN080
     FM150100 35014G24KT P6SM VCSH SCT040 BKN060
     FM150500 36008KT P6SM -RA BKN030 OVC050=

USA.gov is the U.S. government's official web portal to all federal, state and local government web resources and services.